Time;durP1;ratioP1;P1;durP2;ratioP2;P2;SDS_P1;SDS_P2;PMS_P1;PMS_P2;Temp;Humidity;BMP_temperature;BMP_pressure;BME280_temperature;BME280_humidity;BME280_pressure;Samples;Min_cycle;Max_cycle;Signal;HPM_P1;HPM_P2
2023/01/09 00:02:11;;;;;;;33.35;13.68;;;7.20;99.90;;;6.09;100.00;95656.53;5052266;28;20754;-76
2023/01/09 00:04:37;;;;;;;36.07;14.87;;;7.20;99.90;;;6.11;100.00;95657.06;5052416;28;20425;-76
2023/01/09 00:07:03;;;;;;;33.95;13.98;;;7.20;99.90;;;6.11;100.00;95662.31;5052746;28;20411;-76
2023/01/09 00:09:29;;;;;;;35.45;13.68;;;7.20;99.90;;;6.12;100.00;95663.09;5052941;28;20495;-76
2023/01/09 00:11:56;;;;;;;36.00;12.90;;;7.20;99.90;;;6.10;100.00;95652.84;5052226;28;20510;-76
2023/01/09 00:14:22;;;;;;;24.23;11.27;;;7.20;99.90;;;6.19;100.00;95661.78;5052451;28;20467;-76
2023/01/09 00:16:52;;;;;;;30.87;11.83;;;7.20;99.90;;;6.16;100.00;95661.53;5052753;28;20944;-76
2023/01/09 00:19:18;;;;;;;29.45;12.52;;;7.20;99.90;;;6.15;100.00;95658.13;5052687;28;20439;-76
2023/01/09 00:21:44;;;;;;;22.45;10.55;;;7.20;99.90;;;6.16;100.00;95654.41;5052112;28;20456;-75
2023/01/09 00:24:10;;;;;;;25.40;10.67;;;7.20;99.90;;;6.13;100.00;95654.97;5052192;28;20793;-77
2023/01/09 00:26:36;;;;;;;19.10;9.55;;;7.20;99.90;;;6.10;100.00;95658.09;5052537;28;20810;-76
2023/01/09 00:29:02;;;;;;;23.02;9.57;;;7.20;99.90;;;6.10;100.00;95652.84;5052534;28;20401;-76
2023/01/09 00:31:28;;;;;;;19.53;8.57;;;7.20;99.90;;;6.10;100.00;95652.84;5051972;28;20452;-76
2023/01/09 00:34:01;;;;;;;18.30;8.40;;;7.20;99.90;;;6.21;100.00;95664.13;5051881;28;20914;-76
2023/01/09 00:36:27;;;;;;;20.67;8.20;;;7.20;99.90;;;6.17;100.00;95660.44;5052125;28;20710;-76
2023/01/09 00:38:53;;;;;;;16.25;7.38;;;7.30;99.90;;;6.17;100.00;95657.81;5052331;28;20444;-75
2023/01/09 00:41:23;;;;;;;16.73;7.93;;;7.20;99.90;;;6.20;100.00;95652.84;5051674;28;20408;-76
2023/01/09 00:43:56;;;;;;;13.38;6.78;;;7.30;99.90;;;6.19;100.00;95650.47;5051600;28;20400;-75
2023/01/09 00:46:28;;;;;;;10.43;6.32;;;7.30;99.90;;;6.24;100.00;95657.56;5052166;28;20398;-76
2023/01/09 00:48:55;;;;;;;12.40;6.47;;;7.30;99.90;;;6.21;100.00;95657.03;5052221;28;20409;-75
2023/01/09 00:51:22;;;;;;;13.10;6.50;;;7.30;99.90;;;6.18;100.00;95662.03;5051604;28;20743;-75
2023/01/09 00:53:49;;;;;;;14.85;6.10;;;7.20;99.90;;;6.14;100.00;95659.16;5051387;28;20401;-76
2023/01/09 00:56:18;;;;;;;8.93;5.38;;;7.20;99.90;;;6.24;100.00;95654.94;5034138;28;20760;-76
2023/01/09 00:58:45;;;;;;;11.88;5.20;;;7.20;99.90;;;6.19;100.00;95658.34;5052028;28;20397;-75
2023/01/09 01:01:11;;;;;;;9.97;5.00;;;7.30;99.90;;;6.17;100.00;95660.44;5051433;28;20401;-75
2023/01/09 01:03:37;;;;;;;8.95;4.90;;;7.20;99.90;;;6.20;100.00;95657.31;5050987;28;20984;-75
2023/01/09 01:08:49;;;;;;;5.95;3.83;;;7.30;99.90;;;6.23;100.00;95651.53;5051763;28;20431;-75
2023/01/09 01:11:15;;;;;;;9.15;4.50;;;7.30;99.90;;;6.20;100.00;95650.22;5051144;28;20425;-75
2023/01/09 01:13:41;;;;;;;4.63;3.25;;;7.30;99.90;;;6.30;100.00;95644.16;5051059;28;20763;-74
2023/01/09 01:16:11;;;;;;;9.80;4.10;;;7.30;99.90;;;6.19;100.00;95635.50;5051636;28;20489;-75
2023/01/09 01:18:38;;;;;;;6.38;3.65;;;7.30;99.90;;;6.17;100.00;95640.22;5051516;28;20918;-74
2023/01/09 01:21:07;;;;;;;5.28;3.25;;;7.20;99.90;;;6.19;100.00;95647.84;5051624;28;20401;-76
2023/01/09 01:23:34;;;;;;;5.25;2.97;;;7.20;99.90;;;6.18;100.00;95646.28;5050427;28;20783;-76
2023/01/09 01:26:04;;;;;;;5.28;3.05;;;7.20;99.90;;;6.10;100.00;95646.81;5051252;28;20409;-76
2023/01/09 01:28:30;;;;;;;4.15;2.70;;;7.20;99.90;;;6.10;100.00;95639.72;5051397;28;20482;-77
2023/01/09 01:30:56;;;;;;;5.38;3.00;;;7.20;99.90;;;6.10;100.00;95644.97;5051297;28;20484;-76
2023/01/09 01:33:22;;;;;;;5.63;3.00;;;7.10;99.90;;;6.09;100.00;95632.13;5032565;28;20412;-76
2023/01/09 01:35:48;;;;;;;4.82;2.80;;;7.20;99.90;;;6.02;100.00;95637.63;5051233;28;20398;-76
2023/01/09 01:38:15;;;;;;;3.25;2.47;;;7.10;99.90;;;6.03;100.00;95627.91;5051185;28;20448;-76
2023/01/09 01:40:41;;;;;;;4.82;2.75;;;7.10;99.90;;;6.02;100.00;95628.94;5051092;28;20483;-76
2023/01/09 01:43:11;;;;;;;5.45;2.53;;;7.10;99.90;;;6.00;100.00;95638.97;5049948;28;20425;-76
2023/01/09 01:45:39;;;;;;;3.75;2.50;;;7.10;99.90;;;6.01;100.00;95636.06;5050930;28;20491;-76
2023/01/09 01:48:09;;;;;;;5.67;2.50;;;7.10;99.90;;;5.96;100.00;95632.63;5050939;28;20431;-76
2023/01/09 01:50:42;;;;;;;2.93;2.53;;;7.00;99.90;;;5.95;100.00;95631.06;5050971;28;20409;-77
2023/01/09 01:53:13;;;;;;;3.83;2.50;;;7.00;99.90;;;5.88;100.00;95641.84;5049714;28;20462;-76
2023/01/09 01:55:44;;;;;;;3.38;2.47;;;6.90;99.90;;;5.87;100.00;95644.69;5050819;28;20398;-74
2023/01/09 01:58:14;;;;;;;3.83;2.15;;;6.90;99.90;;;5.81;100.00;95644.69;5050892;28;20899;-75
2023/01/09 05:23:50;;;;;;;4.03;1.60;;;5.70;99.90;;;4.54;100.00;95944.97;5723786;22;20551;-69
2023/01/09 05:26:17;;;;;;;5.43;1.70;;;5.70;99.90;;;4.58;100.00;95950.53;5063237;28;20564;-69
2023/01/09 05:28:42;;;;;;;4.63;1.65;;;5.70;99.90;;;4.50;100.00;95948.34;5060072;28;20486;-70
2023/01/09 05:31:08;;;;;;;3.33;1.87;;;5.60;99.90;;;4.36;100.00;95960.25;5068320;28;20479;-69
2023/01/09 05:33:34;;;;;;;3.25;1.73;;;5.50;99.90;;;4.29;100.00;95963.84;5065603;28;20430;-69
2023/01/09 05:36:00;;;;;;;7.60;1.77;;;5.40;99.90;;;4.42;100.00;95977.59;5071994;28;20423;-69
2023/01/09 05:38:26;;;;;;;10.37;1.80;;;5.50;99.90;;;4.31;100.00;95968.81;5075477;22;20441;-75
2023/01/09 05:40:53;;;;;;;4.72;1.80;;;5.50;99.90;;;4.31;100.00;95984.53;5051525;28;20501;-75
2023/01/09 05:43:19;;;;;;;3.85;1.80;;;5.40;99.90;;;4.26;100.00;95989.75;5063412;28;20407;-75
2023/01/09 05:45:45;;;;;;;4.85;1.77;;;5.40;99.90;;;4.18;100.00;95998.81;5057738;28;20416;-72
2023/01/09 05:48:11;;;;;;;4.07;1.85;;;5.40;99.90;;;4.12;100.00;96004.25;5060672;28;20420;-74
2023/01/09 05:50:37;;;;;;;3.60;1.80;;;5.30;99.90;;;4.12;100.00;96004.25;5050971;28;20926;-73
2023/01/09 05:53:03;;;;;;;6.97;2.00;;;5.30;99.90;;;4.03;100.00;96008.31;5048657;28;20488;-74
2023/01/09 05:55:28;;;;;;;4.95;2.05;;;5.20;99.90;;;3.97;100.00;96019.75;5071283;28;20499;-74
2023/01/09 05:57:56;;;;;;;3.93;1.90;;;5.20;99.90;;;3.89;100.00;96019.16;5062615;28;20777;-73
2023/01/09 06:00:22;;;;;;;5.88;2.17;;;5.10;99.90;;;3.84;100.00;96024.28;5039275;28;20456;-73
2023/01/09 06:02:47;;;;;;;4.13;1.70;;;5.10;99.90;;;3.82;100.00;96025.59;5037312;28;20403;-74
2023/01/09 06:05:13;;;;;;;7.32;2.22;;;5.00;99.90;;;3.77;100.00;96028.13;5040638;28;20940;-74
2023/01/09 06:07:40;;;;;;;2.77;1.70;;;4.90;99.90;;;3.74;100.00;96032.03;5033652;28;20399;-74
2023/01/09 06:10:09;;;;;;;7.25;2.15;;;4.90;99.90;;;3.67;100.00;96038.47;5031027;28;20967;-74
2023/01/09 06:12:35;;;;;;;5.72;1.98;;;4.90;99.90;;;3.59;100.00;96025.78;5029641;28;20459;-75
2023/01/09 06:15:04;;;;;;;6.15;2.10;;;4.80;99.90;;;3.58;100.00;96019.75;5031221;28;20522;-75
2023/01/09 06:17:30;;;;;;;6.85;2.05;;;4.80;99.90;;;3.46;100.00;96024.28;5031135;28;20448;-75
2023/01/09 06:19:56;;;;;;;5.45;2.10;;;4.70;99.90;;;3.36;100.00;96024.13;5031127;28;20489;-75
2023/01/09 06:22:22;;;;;;;7.07;2.10;;;4.60;99.90;;;3.31;100.00;96037.13;5030730;28;20407;-74
2023/01/09 06:24:48;;;;;;;5.25;2.00;;;4.60;99.90;;;3.25;100.00;96038.88;5030805;28;20422;-73
2023/01/09 06:27:13;;;;;;;11.63;2.53;;;4.50;99.90;;;3.23;100.00;96040.94;5031012;28;20529;-74
2023/01/09 06:29:40;;;;;;;7.20;2.25;;;4.50;99.90;;;3.19;100.00;96034.59;5031056;28;20441;-74
2023/01/09 06:32:07;;;;;;;10.93;2.35;;;4.40;99.90;;;3.06;100.00;96047.97;5031013;28;20469;-74
2023/01/09 06:34:33;;;;;;;4.65;2.28;;;4.30;99.90;;;3.03;100.00;96049.22;5030545;28;20410;-74
2023/01/09 06:36:59;;;;;;;5.13;2.07;;;4.30;99.90;;;2.94;100.00;96047.22;5030726;28;20403;-73
2023/01/09 06:39:24;;;;;;;5.25;2.47;;;4.20;99.90;;;2.92;100.00;96057.16;5030697;28;20764;-73
2023/01/09 06:41:50;;;;;;;8.38;2.70;;;4.20;99.90;;;2.98;100.00;96061.44;5030666;28;20410;-73
2023/01/09 06:44:16;;;;;;;4.88;2.30;;;4.20;99.90;;;2.98;100.00;96061.44;5012497;28;20422;-75
2023/01/09 06:46:42;;;;;;;10.68;2.33;;;4.20;99.90;;;2.99;100.00;96066.44;5013139;28;20502;-74
2023/01/09 06:49:09;;;;;;;8.03;2.50;;;4.20;99.90;;;3.03;100.00;96071.97;5030678;28;20418;-74
2023/01/09 06:51:35;;;;;;;8.05;2.42;;;4.30;99.90;;;3.26;100.00;96069.22;5030673;28;20927;-74
2023/01/09 06:54:01;;;;;;;4.90;2.43;;;4.40;99.90;;;3.35;100.00;96072.25;5030309;28;20403;-73
2023/01/09 06:56:27;;;;;;;10.35;2.53;;;4.50;99.90;;;3.30;100.00;96062.50;5030504;28;20847;-74
2023/01/09 06:58:53;;;;;;;10.48;2.53;;;4.60;99.90;;;3.33;100.00;96079.53;5030092;28;20410;-74
2023/01/09 07:01:19;;;;;;;8.98;2.55;;;4.50;99.90;;;3.38;100.00;96085.63;5030632;28;20490;-74
2023/01/09 07:03:45;;;;;;;9.13;2.40;;;4.60;99.90;;;3.38;100.00;96083.00;5012293;28;20510;-73
2023/01/09 07:06:13;;;;;;;11.77;2.70;;;4.60;99.90;;;3.45;100.00;96069.78;5030355;28;20785;-74
2023/01/09 07:08:38;;;;;;;7.00;2.38;;;4.60;99.90;;;3.46;100.00;96076.59;5030444;28;20457;-73
2023/01/09 07:11:04;;;;;;;8.77;2.50;;;4.70;99.90;;;3.52;100.00;96074.88;5030617;28;20407;-72
2023/01/09 07:13:30;;;;;;;6.97;2.33;;;4.70;99.90;;;3.47;100.00;96078.97;5048899;28;20446;-72
2023/01/09 07:15:56;;;;;;;13.80;2.50;;;4.70;99.90;;;3.44;100.00;96074.22;5070353;28;20462;-72
2023/01/09 07:18:22;;;;;;;14.10;2.90;;;4.70;99.90;;;3.43;100.00;96075.25;5070378;28;20421;-72
2023/01/09 07:20:48;;;;;;;8.27;2.50;;;4.60;99.90;;;3.36;100.00;96085.09;5070407;28;20400;-72
2023/01/09 07:23:17;;;;;;;15.20;2.80;;;4.60;99.90;;;3.31;100.00;96089.41;5070001;28;20450;-72
2023/01/09 07:25:43;;;;;;;10.13;3.00;;;4.50;99.90;;;3.23;100.00;96088.00;5052274;28;20458;-72
2023/01/09 07:28:10;;;;;;;10.13;3.03;;;4.50;99.90;;;3.34;100.00;96097.59;5070271;28;20407;-72
2023/01/09 07:30:36;;;;;;;9.15;2.53;;;4.50;99.90;;;3.28;100.00;96093.31;5070297;28;20486;-72
2023/01/09 07:33:02;;;;;;;8.57;2.60;;;4.50;99.90;;;3.28;100.00;96102.97;5051884;28;20767;-72
2023/01/09 07:35:27;;;;;;;9.85;2.72;;;4.50;99.90;;;3.28;100.00;96092.53;5070205;28;20403;-72
2023/01/09 07:37:53;;;;;;;5.93;2.60;;;4.50;99.90;;;3.29;100.00;96089.69;5070073;28;20404;-71
2023/01/09 07:40:21;;;;;;;7.70;2.70;;;4.50;99.90;;;3.32;100.00;96086.56;5070228;28;20903;-72
2023/01/09 07:42:47;;;;;;;9.68;2.90;;;4.50;99.90;;;3.48;100.00;96088.41;5064172;28;20472;-73
2023/01/09 07:45:13;;;;;;;21.17;2.63;;;4.60;99.90;;;3.55;100.00;96080.41;5019988;28;21071;-73
2023/01/09 07:47:40;;;;;;;11.85;2.38;;;4.70;99.90;;;3.53;100.00;96089.53;5046458;28;20892;-74
2023/01/09 07:50:08;;;;;;;10.23;2.33;;;4.70;99.90;;;3.58;100.00;96087.00;5069909;28;20407;-74
2023/01/09 07:52:34;;;;;;;10.35;2.40;;;4.70;99.90;;;3.50;100.00;96090.78;5045162;28;20422;-74
2023/01/09 07:55:00;;;;;;;8.57;2.60;;;4.70;99.90;;;3.44;100.00;96092.53;5049500;28;20535;-73
2023/01/09 07:57:28;;;;;;;11.83;2.57;;;4.60;99.90;;;3.45;100.00;96090.72;5049795;28;20401;-73
2023/01/09 07:59:54;;;;;;;9.48;2.33;;;4.60;99.90;;;3.44;100.00;96096.97;5042717;28;20410;-73
2023/01/09 08:02:20;;;;;;;8.10;2.30;;;4.60;99.90;;;3.48;100.00;96096.25;5030106;28;20407;-73
2023/01/09 08:04:46;;;;;;;10.95;2.40;;;4.60;99.90;;;3.42;100.00;96097.22;5029398;28;20508;-73
2023/01/09 08:07:12;;;;;;;7.47;2.40;;;4.60;99.90;;;3.42;100.00;96101.66;5051340;28;20407;-73
2023/01/09 08:09:38;;;;;;;7.90;2.50;;;4.60;99.90;;;3.45;100.00;96095.94;5041953;28;20397;-74
2023/01/09 08:12:04;;;;;;;7.17;2.30;;;4.60;99.90;;;3.41;100.00;96108.69;5040119;28;20820;-75
2023/01/09 08:14:32;;;;;;;16.90;2.40;;;4.60;99.90;;;3.41;100.00;96108.69;5033338;28;20418;-75
2023/01/09 08:16:58;;;;;;;9.18;2.75;;;4.60;99.90;;;3.45;100.00;96107.22;5045999;28;20403;-75
2023/01/09 08:19:24;;;;;;;8.52;2.70;;;4.50;99.90;;;3.74;100.00;96112.38;5051618;28;20393;-74
2023/01/09 08:21:50;;;;;;;9.55;2.72;;;4.70;99.90;;;3.75;100.00;96121.81;5053180;28;20488;-73
2023/01/09 08:24:16;;;;;;;11.40;2.90;;;4.80;99.90;;;3.79;100.00;96122.91;5052586;28;20515;-74
2023/01/09 08:26:41;;;;;;;8.68;2.40;;;4.90;99.90;;;3.68;100.00;96129.81;5053223;28;20406;-73
2023/01/09 08:29:07;;;;;;;12.45;2.67;;;4.80;99.90;;;3.68;100.00;96121.97;5049467;28;20415;-74
2023/01/09 08:31:34;;;;;;;11.50;2.47;;;4.80;99.90;;;3.71;100.00;96123.28;5033275;28;20398;-73
2023/01/09 08:34:00;;;;;;;11.35;2.88;;;4.80;99.90;;;3.65;100.00;96132.09;5032773;28;20447;-74
2023/01/09 08:36:29;;;;;;;13.77;2.50;;;4.80;99.90;;;3.69;100.00;96127.97;5033196;28;20399;-72
2023/01/09 08:38:55;;;;;;;9.35;2.35;;;4.80;99.90;;;3.84;100.00;96126.38;5032962;28;20455;-73
2023/01/09 08:47:10;;;;;;;10.70;2.50;;;5.30;99.90;;;4.12;100.00;96130.72;5032552;28;20483;-72
2023/01/09 08:49:37;;;;;;;9.18;2.15;;;5.20;99.90;;;4.24;100.00;96130.63;5032394;28;20904;-73
2023/01/09 08:52:05;;;;;;;10.27;2.00;;;5.30;99.90;;;4.41;100.00;96117.47;5032398;28;20477;-73
2023/01/09 08:54:31;;;;;;;8.70;2.10;;;5.50;99.90;;;4.48;100.00;96126.75;5043303;28;20888;-73
2023/01/09 08:57:03;;;;;;;7.82;2.00;;;5.50;99.90;;;4.43;100.00;96120.66;5046225;28;20409;-74
2023/01/09 08:59:29;;;;;;;11.77;2.42;;;5.50;99.90;;;4.46;100.00;96126.19;5034366;28;20487;-73
2023/01/09 09:01:57;;;;;;;12.40;2.13;;;5.50;99.90;;;4.33;100.00;96128.38;5054331;28;20766;-73
2023/01/09 09:04:23;;;;;;;9.75;2.17;;;5.40;99.90;;;4.40;100.00;96135.03;5068478;28;20427;-73
2023/01/09 09:06:49;;;;;;;7.68;1.98;;;5.40;99.90;;;4.45;100.00;96135.09;5070022;28;20424;-74
2023/01/09 09:09:15;;;;;;;12.70;2.20;;;5.50;99.90;;;4.29;100.00;96138.53;5052235;28;20448;-74
2023/01/09 09:11:41;;;;;;;10.77;2.45;;;5.40;99.90;;;4.28;100.00;96139.59;5052444;28;20406;-74
2023/01/09 09:16:52;;;;;;;6.78;1.83;;;5.30;99.90;;;4.31;100.00;96139.09;5032431;28;20452;-73
2023/01/09 09:19:19;;;;;;;12.80;2.60;;;5.30;99.90;;;4.18;100.00;96136.81;5037328;28;20401;-74
2023/01/09 09:21:45;;;;;;;8.57;2.50;;;5.30;99.90;;;4.24;100.00;96141.88;5051966;28;20450;-75
2023/01/09 09:24:11;;;;;;;11.30;2.40;;;5.30;99.90;;;4.32;100.00;96135.44;5051032;28;20416;-74
2023/01/09 09:26:37;;;;;;;7.88;2.22;;;5.40;99.90;;;4.43;100.00;96139.78;5051163;28;20483;-73
2023/01/09 09:29:03;;;;;;;10.25;2.38;;;5.40;99.90;;;4.53;100.00;96139.09;5051007;28;20405;-74
2023/01/09 09:31:29;;;;;;;7.00;2.00;;;5.50;99.90;;;4.48;100.00;96134.59;5050424;28;20496;-72
2023/01/09 09:33:58;;;;;;;8.65;2.10;;;5.50;99.90;;;4.47;100.00;96133.03;5050890;28;20444;-72
2023/01/09 09:36:25;;;;;;;13.70;2.58;;;5.50;99.90;;;4.66;100.00;96136.16;5050086;28;20536;-72
2023/01/09 09:38:51;;;;;;;9.98;2.30;;;5.70;99.90;;;4.52;100.00;96140.94;5030800;28;20934;-75
2023/01/09 09:45:01;;;;;;;12.00;2.10;;;5.70;99.90;;;4.91;100.00;96146.91;5052622;28;20567;-72
2023/01/09 09:47:52;;;;;;;6.90;2.20;;;5.90;99.90;;;5.06;100.00;96148.91;5046166;28;20477;-75
2023/01/09 09:50:37;;;;;;;10.75;2.17;;;6.00;99.90;;;4.91;100.00;96161.84;5052351;28;20485;-74
2023/01/09 09:53:12;;;;;;;8.10;2.25;;;5.90;99.90;;;5.09;100.00;96168.63;5040877;28;20505;-74
2023/01/09 09:55:40;;;;;;;7.57;1.80;;;6.00;99.90;;;5.37;100.00;96161.31;5050254;28;20417;-75
2023/01/09 09:58:14;;;;;;;6.97;1.95;;;6.30;99.90;;;5.24;100.00;96169.56;5054767;28;20447;-75
2023/01/09 10:00:41;;;;;;;9.02;2.10;;;6.20;99.90;;;5.14;100.00;96158.97;5048158;28;20440;-73
2023/01/09 10:03:15;;;;;;;10.73;2.20;;;6.20;99.90;;;5.54;100.00;96153.34;5043563;28;20405;-75
2023/01/09 10:05:45;;;;;;;6.20;2.00;;;6.40;99.90;;;5.32;100.00;96155.22;5044013;28;20457;-75
2023/01/09 10:08:28;;;;;;;8.20;1.80;;;6.30;99.90;;;5.52;100.00;96146.75;5057325;28;20414;-74
2023/01/09 10:10:55;;;;;;;6.57;2.00;;;6.40;99.90;;;5.91;100.00;96149.97;5041268;28;20411;-74
2023/01/09 10:16:27;;;;;;;6.72;1.80;;;7.60;99.90;;;7.49;100.00;96139.13;5046637;28;20464;-74
2023/01/09 10:19:09;;;;;;;5.35;1.98;;;8.60;99.90;;;7.16;100.00;96138.53;5047918;28;20405;-74
2023/01/09 10:21:44;;;;;;;7.55;1.85;;;8.20;99.90;;;6.90;100.00;96124.50;5047448;28;20500;-73
2023/01/09 10:24:42;;;;;;;9.90;1.87;;;7.80;99.90;;;6.53;100.00;96136.97;5027602;28;20918;-75
2023/01/09 10:27:22;;;;;;;9.38;2.28;;;7.50;99.90;;;6.36;100.00;96129.25;5051076;28;20409;-75
2023/01/09 10:30:29;;;;;;;6.63;1.95;;;7.30;99.90;;;6.29;100.00;96126.06;5054815;28;20395;-75
2023/01/09 10:33:23;;;;;;;9.60;2.25;;;7.30;99.90;;;5.96;100.00;96126.38;5041433;28;20457;-74
2023/01/09 10:36:20;;;;;;;9.05;1.80;;;7.00;99.90;;;5.85;100.00;96122.88;5044476;28;20912;-73
2023/01/09 10:38:51;;;;;;;5.50;1.95;;;6.90;99.90;;;5.80;100.00;96109.69;5036534;28;20407;-73
2023/01/09 10:41:24;;;;;;;9.88;2.20;;;6.80;99.90;;;5.65;100.00;96120.88;5047582;28;20425;-73
2023/01/09 10:43:56;;;;;;;8.35;2.00;;;6.70;99.90;;;5.73;100.00;96112.53;5045919;28;20463;-73
2023/01/09 10:46:25;;;;;;;7.82;1.75;;;6.60;99.90;;;5.70;100.00;96114.88;5047109;28;20410;-74
2023/01/09 10:48:58;;;;;;;6.63;1.77;;;6.70;99.90;;;5.59;100.00;96110.56;5047070;28;20409;-75
2023/01/09 10:51:33;;;;;;;7.60;2.17;;;6.60;99.90;;;5.56;100.00;96113.72;5044159;28;20425;-75
2023/01/09 10:53:59;;;;;;;9.45;1.80;;;6.60;99.90;;;5.71;100.00;96114.59;5043844;28;20943;-73
2023/01/09 10:56:36;;;;;;;6.10;1.90;;;6.70;99.90;;;5.72;100.00;96097.81;5050057;28;22259;-73
2023/01/09 10:59:02;;;;;;;11.35;2.22;;;6.70;99.90;;;5.76;100.00;96106.78;5053726;28;20409;-74
2023/01/09 11:01:31;;;;;;;10.75;2.22;;;6.70;99.90;;;5.82;100.00;96108.41;5043849;28;20422;-74
2023/01/09 11:03:58;;;;;;;8.85;2.00;;;6.80;99.90;;;5.98;100.00;96106.69;5050987;28;21575;-75
2023/01/09 11:06:31;;;;;;;9.43;2.50;;;6.90;99.90;;;5.99;100.00;96115.38;5053478;28;20463;-75
2023/01/09 11:08:59;;;;;;;11.32;2.05;;;7.00;99.90;;;5.94;100.00;96102.22;5041867;28;20413;-75
2023/01/09 11:11:35;;;;;;;10.48;2.38;;;6.90;99.90;;;5.94;100.00;96102.97;5046916;28;20435;-73
2023/01/09 11:14:13;;;;;;;8.88;1.83;;;6.90;99.90;;;5.81;100.00;96100.78;5043396;28;20409;-73
2023/01/09 11:16:51;;;;;;;8.17;2.03;;;6.80;99.90;;;5.92;100.00;96097.22;5042386;28;20409;-73
2023/01/09 11:19:17;;;;;;;8.45;2.08;;;6.90;99.90;;;6.07;100.00;96101.78;5050895;28;20412;-74
2023/01/09 11:21:43;;;;;;;8.73;2.00;;;7.00;99.90;;;6.06;100.00;96100.97;5056136;28;20417;-74
2023/01/09 11:24:28;;;;;;;9.37;1.80;;;7.10;99.90;;;6.48;100.00;96093.03;5050135;28;20441;-73
2023/01/09 11:29:24;;;;;;;8.35;2.15;;;7.70;99.90;;;7.16;100.00;96093.78;5063950;22;20436;-74
2023/01/09 11:31:54;;;;;;;8.80;2.40;;;8.20;99.90;;;7.34;100.00;96095.94;5061999;28;20426;-74
2023/01/09 11:34:23;;;;;;;7.15;1.73;;;8.20;99.90;;;7.37;100.00;96084.84;5062823;28;20407;-74
2023/01/09 11:36:51;;;;;;;5.60;1.85;;;8.30;99.90;;;7.60;100.00;96088.03;5062586;28;20410;-74
2023/01/09 11:39:23;;;;;;;4.90;1.42;;;8.50;99.90;;;8.39;100.00;96080.31;5076027;22;20428;-72
2023/01/09 11:41:53;;;;;;;10.00;2.38;;;9.20;99.90;;;8.86;100.00;96079.88;5057542;28;21022;-73
2023/01/09 11:44:20;;;;;;;7.53;2.00;;;9.70;99.90;;;8.87;100.00;96078.78;5061454;28;20468;-73
2023/01/09 11:46:47;;;;;;;8.02;1.77;;;9.80;99.90;;;9.16;100.00;96063.06;5064611;28;20409;-73
2023/01/09 11:49:23;;;;;;;3.85;1.58;;;10.00;99.90;;;9.88;100.00;96069.34;5057892;28;20425;-73
2023/01/09 11:52:14;;;;;;;8.43;1.80;;;10.60;99.90;;;10.06;100.00;96076.59;5056895;28;20407;-73
2023/01/09 11:54:45;;;;;;;5.55;1.90;;;11.10;99.90;;;9.85;100.00;96069.91;5056440;28;20408;-73
2023/01/09 11:57:24;;;;;;;9.10;1.95;;;10.90;99.90;;;9.21;100.00;96072.78;5056980;28;20408;-73
2023/01/09 11:59:50;;;;;;;8.30;2.10;;;10.10;99.90;;;8.75;100.00;96074.88;5051759;28;20905;-72
2023/01/09 12:02:45;;;;;;;4.57;1.67;;;9.70;99.90;;;8.40;100.00;96073.19;5053019;28;20900;-72
2023/01/09 12:05:24;;;;;;;6.95;1.83;;;9.40;99.90;;;8.32;100.00;96071.09;5054059;28;20786;-72
2023/01/09 12:08:25;;;;;;;8.38;2.50;;;9.20;99.90;;;7.95;100.00;96069.59;5053482;28;20409;-72
2023/01/09 12:11:22;;;;;;;7.93;2.00;;;8.90;99.90;;;7.77;100.00;96072.75;5058679;28;20483;-72
2023/01/09 12:14:11;;;;;;;7.65;1.60;;;8.80;99.90;;;7.92;100.00;96064.03;5065154;28;20412;-72
2023/01/09 12:16:47;;;;;;;8.00;2.30;;;8.70;99.90;;;8.23;100.00;96055.00;5071174;28;20441;-73
2023/01/09 12:19:58;;;;;;;6.30;1.83;;;9.10;99.90;;;8.46;100.00;96078.16;5053290;28;20412;-73
2023/01/09 12:22:35;;;;;;;7.35;1.60;;;9.30;99.90;;;8.25;100.00;96074.00;5064208;28;20433;-73
2023/01/09 12:25:22;;;;;;;5.85;1.95;;;9.10;99.90;;;8.04;100.00;96078.50;5052667;28;20417;-72
2023/01/09 12:28:29;;;;;;;6.40;1.70;;;8.90;99.90;;;7.93;100.00;96076.94;5052694;28;20463;-72
2023/01/09 12:31:13;;;;;;;9.63;1.60;;;8.90;99.90;;;7.81;100.00;96078.28;5053144;28;20909;-73
2023/01/09 12:33:53;;;;;;;6.75;1.80;;;8.80;99.90;;;7.89;100.00;96072.50;5060507;28;20421;-72
2023/01/09 12:36:31;;;;;;;7.22;2.15;;;8.70;99.90;;;7.99;100.00;96083.78;5053018;28;20422;-72
2023/01/09 12:39:06;;;;;;;7.95;1.70;;;8.80;99.90;;;7.66;100.00;96095.69;5052623;28;20880;-72
2023/01/09 12:42:00;;;;;;;7.37;2.03;;;8.50;99.90;;;7.66;100.00;96098.31;5055609;28;20418;-72
2023/01/09 12:44:44;;;;;;;6.97;1.90;;;8.60;99.90;;;7.55;100.00;96095.94;5062261;28;20424;-73
2023/01/09 12:47:44;;;;;;;6.32;1.85;;;8.50;99.90;;;7.38;100.00;96096.19;5053928;28;20412;-73
2023/01/09 12:50:52;;;;;;;4.60;1.77;;;8.30;99.90;;;7.20;100.00;96100.13;5059291;28;20767;-73
2023/01/09 12:53:24;;;;;;;7.05;1.67;;;8.20;99.90;;;7.16;100.00;96093.00;5053286;28;20806;-72
2023/01/09 12:55:59;;;;;;;6.57;2.42;;;8.10;99.90;;;7.15;100.00;96101.94;5061382;28;20420;-72
2023/01/09 12:58:35;;;;;;;4.55;1.70;;;8.10;99.90;;;7.20;100.00;96094.84;5051986;28;20410;-73
2023/01/09 13:01:06;;;;;;;6.57;1.80;;;8.10;99.90;;;7.24;100.00;96095.91;5035412;28;20723;-73
2023/01/09 13:03:40;;;;;;;5.05;1.48;;;8.20;99.90;;;7.31;100.00;96093.00;5045033;28;20404;-73
2023/01/09 13:06:11;;;;;;;5.03;1.60;;;8.30;99.90;;;7.49;100.00;96097.00;5064009;28;20416;-72
2023/01/09 13:08:43;;;;;;;4.78;1.50;;;8.40;99.90;;;7.54;100.00;96102.25;5032411;28;20407;-72
2023/01/09 13:11:14;;;;;;;3.72;1.63;;;8.50;99.90;;;7.50;100.00;96103.84;5026703;28;20412;-72
2023/01/09 13:13:46;;;;;;;6.03;1.80;;;8.40;99.90;;;7.53;100.00;96104.09;5055995;28;20588;-72
2023/01/09 13:16:17;;;;;;;4.40;1.90;;;8.50;99.90;;;7.26;100.00;96101.72;5061032;28;20760;-73
2023/01/09 13:18:48;;;;;;;4.55;1.60;;;8.20;99.90;;;7.25;100.00;96096.69;5071653;28;20498;-74
2023/01/09 13:21:15;;;;;;;3.65;1.33;;;8.20;99.90;;;7.21;100.00;96104.34;5071372;28;20411;-72
2023/01/09 13:23:51;;;;;;;4.72;1.30;;;8.20;99.90;;;7.09;100.00;96102.97;5068566;28;20415;-72
2023/01/09 13:26:23;;;;;;;3.78;1.52;;;8.10;99.90;;;7.05;100.00;96110.63;5053333;28;20812;-72
2023/01/09 13:28:53;;;;;;;4.70;1.47;;;8.00;99.90;;;7.08;100.00;96117.97;5053268;28;20422;-71
2023/01/09 13:31:41;;;;;;;5.55;1.85;;;8.00;99.90;;;7.02;100.00;96116.38;5071319;28;20392;-72
2023/01/09 13:34:13;;;;;;;7.13;1.90;;;8.00;99.90;;;7.17;100.00;96121.69;5058053;28;20886;-72
2023/01/09 13:36:46;;;;;;;4.63;1.70;;;8.10;99.90;;;7.26;100.00;96103.53;5059858;28;20401;-71
2023/01/09 13:39:21;;;;;;;3.17;1.58;;;8.10;99.90;;;7.03;100.00;96119.81;5051202;28;20437;-71
2023/01/09 13:44:38;;;;;;;5.10;1.45;;;8.00;99.90;;;7.15;100.00;96118.50;5061779;28;20425;-71
2023/01/09 13:47:13;;;;;;;3.60;1.70;;;8.00;99.90;;;7.00;100.00;96118.47;5070366;28;20406;-72
2023/01/09 13:50:19;;;;;;;5.00;1.73;;;8.00;99.90;;;6.89;100.00;96130.81;5067961;28;20494;-71
2023/01/09 13:52:45;;;;;;;2.10;1.45;;;7.80;99.90;;;7.07;100.00;96134.03;5053900;28;20416;-72
2023/01/09 13:55:34;;;;;;;2.47;1.55;;;7.90;99.90;;;7.00;100.00;96140.31;5052166;28;20413;-72
2023/01/09 13:58:23;;;;;;;3.88;1.52;;;7.90;99.90;;;6.90;100.00;96148.19;5055686;28;20417;-72
2023/01/09 14:00:59;;;;;;;2.58;1.30;;;7.90;99.90;;;6.82;100.00;96142.63;5060494;28;20400;-73
2023/01/09 14:03:31;;;;;;;2.85;1.40;;;7.70;99.90;;;6.76;100.00;96154.97;5048601;28;20458;-72
2023/01/09 14:06:18;;;;;;;3.90;1.33;;;7.70;99.90;;;6.73;100.00;96170.47;5049575;28;20439;-73
2023/01/09 14:08:57;;;;;;;2.78;1.42;;;7.70;99.90;;;6.75;100.00;96163.13;5044185;28;20452;-73
2023/01/09 14:11:27;;;;;;;3.10;1.30;;;7.70;99.90;;;6.66;100.00;96168.06;5055980;28;20415;-73
2023/01/09 14:14:13;;;;;;;2.47;1.40;;;7.60;99.90;;;6.92;100.00;96174.22;5066687;28;20412;-71
2023/01/09 14:16:39;;;;;;;3.00;1.30;;;7.80;99.90;;;6.99;100.00;96166.91;5046284;28;20405;-70
2023/01/09 14:19:21;;;;;;;2.00;1.20;;;7.90;99.90;;;6.92;100.00;96175.00;5060046;28;20849;-71
2023/01/09 14:21:52;;;;;;;1.90;1.23;;;7.90;99.90;;;6.99;100.00;96174.78;5070291;28;20461;-71
2023/01/09 14:24:27;;;;;;;3.10;1.10;;;7.90;99.90;;;7.08;100.00;96181.13;5032629;28;20820;-71
2023/01/09 14:26:57;;;;;;;2.42;1.10;;;8.00;99.90;;;6.91;100.00;96180.56;5054237;28;20524;-72